sensor_id;sensor_type;location;lat;lon;timestamp;P1;durP1;ratioP1;P2;durP2;ratioP2
19107;SDS011;9686;48.832;9.126;2023-05-28T00:02:17;6.23;;;3.63;;
19107;SDS011;9686;48.832;9.126;2023-05-28T00:04:42;7.40;;;3.87;;
19107;SDS011;9686;48.832;9.126;2023-05-28T00:07:07;9.57;;;4.10;;
19107;SDS011;9686;48.832;9.126;2023-05-28T00:09:35;7.97;;;4.20;;
19107;SDS011;9686;48.832;9.126;2023-05-28T00:12:01;6.43;;;3.50;;
19107;SDS011;9686;48.832;9.126;2023-05-28T00:14:26;6.77;;;4.37;;
19107;SDS011;9686;48.832;9.126;2023-05-28T00:16:51;7.43;;;3.70;;
19107;SDS011;9686;48.832;9.126;2023-05-28T00:19:17;7.07;;;4.20;;
19107;SDS011;9686;48.832;9.126;2023-05-28T00:21:42;7.17;;;4.20;;
19107;SDS011;9686;48.832;9.126;2023-05-28T00:24:07;9.67;;;4.00;;
19107;SDS011;9686;48.832;9.126;2023-05-28T00:26:33;5.53;;;3.90;;
19107;SDS011;9686;48.832;9.126;2023-05-28T00:28:58;6.50;;;4.30;;
19107;SDS011;9686;48.832;9.126;2023-05-28T00:31:23;6.23;;;4.00;;
19107;SDS011;9686;48.832;9.126;2023-05-28T00:33:49;5.93;;;4.50;;
19107;SDS011;9686;48.832;9.126;2023-05-28T00:36:14;7.20;;;4.53;;
19107;SDS011;9686;48.832;9.126;2023-05-28T00:38:40;9.93;;;3.97;;
19107;SDS011;9686;48.832;9.126;2023-05-28T00:41:05;6.87;;;4.40;;
19107;SDS011;9686;48.832;9.126;2023-05-28T00:43:31;6.80;;;4.33;;
19107;SDS011;9686;48.832;9.126;2023-05-28T00:45:57;5.37;;;3.57;;
19107;SDS011;9686;48.832;9.126;2023-05-28T00:48:26;7.07;;;3.90;;
19107;SDS011;9686;48.832;9.126;2023-05-28T00:50:53;8.67;;;4.80;;
19107;SDS011;9686;48.832;9.126;2023-05-28T00:53:19;5.67;;;4.07;;
19107;SDS011;9686;48.832;9.126;2023-05-28T00:55:45;5.20;;;4.03;;
19107;SDS011;9686;48.832;9.126;2023-05-28T00:58:10;5.87;;;3.80;;
19107;SDS011;9686;48.832;9.126;2023-05-28T01:00:36;5.63;;;3.63;;
19107;SDS011;9686;48.832;9.126;2023-05-28T01:03:03;5.77;;;4.50;;
19107;SDS011;9686;48.832;9.126;2023-05-28T01:05:29;8.23;;;4.67;;
19107;SDS011;9686;48.832;9.126;2023-05-28T01:07:59;5.60;;;4.57;;
19107;SDS011;9686;48.832;9.126;2023-05-28T01:10:27;5.93;;;4.20;;
19107;SDS011;9686;48.832;9.126;2023-05-28T01:12:53;6.57;;;4.53;;
19107;SDS011;9686;48.832;9.126;2023-05-28T01:15:19;12.53;;;4.77;;
19107;SDS011;9686;48.832;9.126;2023-05-28T01:17:44;5.70;;;3.50;;
19107;SDS011;9686;48.832;9.126;2023-05-28T01:20:10;6.77;;;4.47;;
19107;SDS011;9686;48.832;9.126;2023-05-28T01:22:38;6.90;;;4.33;;
19107;SDS011;9686;48.832;9.126;2023-05-28T01:25:06;5.10;;;3.93;;
19107;SDS011;9686;48.832;9.126;2023-05-28T01:27:43;6.17;;;3.97;;
19107;SDS011;9686;48.832;9.126;2023-05-28T01:30:09;6.30;;;4.53;;
19107;SDS011;9686;48.832;9.126;2023-05-28T01:32:35;6.33;;;4.23;;
19107;SDS011;9686;48.832;9.126;2023-05-28T01:35:02;5.53;;;4.17;;
19107;SDS011;9686;48.832;9.126;2023-05-28T01:37:28;6.03;;;4.30;;
19107;SDS011;9686;48.832;9.126;2023-05-28T01:39:55;7.33;;;4.03;;
19107;SDS011;9686;48.832;9.126;2023-05-28T01:42:22;4.83;;;3.70;;
19107;SDS011;9686;48.832;9.126;2023-05-28T01:44:48;7.33;;;4.50;;
19107;SDS011;9686;48.832;9.126;2023-05-28T01:47:16;8.23;;;4.33;;
19107;SDS011;9686;48.832;9.126;2023-05-28T01:49:41;5.33;;;4.13;;
19107;SDS011;9686;48.832;9.126;2023-05-28T01:52:07;5.23;;;4.23;;
19107;SDS011;9686;48.832;9.126;2023-05-28T01:54:33;5.27;;;4.27;;
19107;SDS011;9686;48.832;9.126;2023-05-28T01:56:58;6.13;;;3.83;;
19107;SDS011;9686;48.832;9.126;2023-05-28T01:59:24;4.83;;;3.73;;
19107;SDS011;9686;48.832;9.126;2023-05-28T02:01:50;6.00;;;4.10;;
19107;SDS011;9686;48.832;9.126;2023-05-28T02:04:15;7.27;;;4.37;;
19107;SDS011;9686;48.832;9.126;2023-05-28T02:06:44;6.03;;;3.90;;
19107;SDS011;9686;48.832;9.126;2023-05-28T02:09:10;6.77;;;4.23;;
19107;SDS011;9686;48.832;9.126;2023-05-28T02:11:36;5.57;;;3.83;;
19107;SDS011;9686;48.832;9.126;2023-05-28T02:14:01;6.30;;;4.43;;
19107;SDS011;9686;48.832;9.126;2023-05-28T02:16:26;7.17;;;3.90;;
19107;SDS011;9686;48.832;9.126;2023-05-28T02:18:52;5.67;;;3.53;;
19107;SDS011;9686;48.832;9.126;2023-05-28T02:21:17;5.80;;;3.87;;
19107;SDS011;9686;48.832;9.126;2023-05-28T02:23:44;5.60;;;3.80;;
19107;SDS011;9686;48.832;9.126;2023-05-28T02:26:10;4.53;;;4.00;;
19107;SDS011;9686;48.832;9.126;2023-05-28T02:28:36;5.77;;;3.97;;
19107;SDS011;9686;48.832;9.126;2023-05-28T02:31:02;5.77;;;4.20;;
19107;SDS011;9686;48.832;9.126;2023-05-28T02:33:27;8.07;;;3.83;;
19107;SDS011;9686;48.832;9.126;2023-05-28T02:35:53;8.60;;;4.33;;
19107;SDS011;9686;48.832;9.126;2023-05-28T02:38:19;7.90;;;4.23;;
19107;SDS011;9686;48.832;9.126;2023-05-28T02:40:44;5.90;;;3.93;;
19107;SDS011;9686;48.832;9.126;2023-05-28T02:43:10;5.90;;;3.53;;
19107;SDS011;9686;48.832;9.126;2023-05-28T02:45:35;9.83;;;4.00;;
19107;SDS011;9686;48.832;9.126;2023-05-28T02:48:01;5.33;;;3.93;;
19107;SDS011;9686;48.832;9.126;2023-05-28T02:50:26;7.20;;;4.33;;
19107;SDS011;9686;48.832;9.126;2023-05-28T02:52:51;6.60;;;3.63;;
19107;SDS011;9686;48.832;9.126;2023-05-28T02:55:16;7.43;;;4.07;;
19107;SDS011;9686;48.832;9.126;2023-05-28T02:57:42;6.30;;;4.10;;
19107;SDS011;9686;48.832;9.126;2023-05-28T03:00:07;11.13;;;4.30;;
19107;SDS011;9686;48.832;9.126;2023-05-28T03:02:35;5.60;;;3.70;;
19107;SDS011;9686;48.832;9.126;2023-05-28T03:05:01;7.27;;;3.77;;
19107;SDS011;9686;48.832;9.126;2023-05-28T03:07:28;7.97;;;3.80;;
19107;SDS011;9686;48.832;9.126;2023-05-28T03:09:53;7.97;;;4.20;;
19107;SDS011;9686;48.832;9.126;2023-05-28T03:12:19;7.43;;;4.87;;
19107;SDS011;9686;48.832;9.126;2023-05-28T03:14:44;5.03;;;3.40;;
19107;SDS011;9686;48.832;9.126;2023-05-28T03:17:09;7.20;;;4.37;;
19107;SDS011;9686;48.832;9.126;2023-05-28T03:19:34;4.83;;;3.67;;
19107;SDS011;9686;48.832;9.126;2023-05-28T03:22:01;7.53;;;3.87;;
19107;SDS011;9686;48.832;9.126;2023-05-28T03:24:27;8.97;;;4.43;;
19107;SDS011;9686;48.832;9.126;2023-05-28T03:26:52;4.97;;;3.57;;
19107;SDS011;9686;48.832;9.126;2023-05-28T03:29:17;6.43;;;4.20;;
19107;SDS011;9686;48.832;9.126;2023-05-28T03:31:44;4.70;;;3.70;;
19107;SDS011;9686;48.832;9.126;2023-05-28T03:34:11;7.53;;;3.97;;
19107;SDS011;9686;48.832;9.126;2023-05-28T03:36:36;6.13;;;4.13;;
19107;SDS011;9686;48.832;9.126;2023-05-28T03:39:03;6.73;;;4.10;;
19107;SDS011;9686;48.832;9.126;2023-05-28T03:41:29;5.13;;;3.63;;
19107;SDS011;9686;48.832;9.126;2023-05-28T03:43:54;5.47;;;3.77;;
19107;SDS011;9686;48.832;9.126;2023-05-28T03:46:19;5.77;;;3.93;;
19107;SDS011;9686;48.832;9.126;2023-05-28T03:48:45;6.60;;;4.33;;
19107;SDS011;9686;48.832;9.126;2023-05-28T03:51:10;7.60;;;4.43;;
19107;SDS011;9686;48.832;9.126;2023-05-28T03:53:35;5.97;;;4.03;;
19107;SDS011;9686;48.832;9.126;2023-05-28T03:56:01;5.97;;;4.20;;
19107;SDS011;9686;48.832;9.126;2023-05-28T03:58:26;6.40;;;4.00;;
19107;SDS011;9686;48.832;9.126;2023-05-28T04:00:51;4.67;;;3.83;;
19107;SDS011;9686;48.832;9.126;2023-05-28T04:03:17;5.97;;;3.63;;
19107;SDS011;9686;48.832;9.126;2023-05-28T04:05:42;7.80;;;4.00;;
19107;SDS011;9686;48.832;9.126;2023-05-28T04:08:07;8.77;;;4.23;;
19107;SDS011;9686;48.832;9.126;2023-05-28T04:10:33;5.70;;;3.90;;
19107;SDS011;9686;48.832;9.126;2023-05-28T04:12:58;7.27;;;4.13;;
19107;SDS011;9686;48.832;9.126;2023-05-28T04:15:24;6.33;;;3.77;;
19107;SDS011;9686;48.832;9.126;2023-05-28T04:17:50;5.07;;;3.63;;
19107;SDS011;9686;48.832;9.126;2023-05-28T04:20:15;5.50;;;3.60;;
19107;SDS011;9686;48.832;9.126;2023-05-28T04:22:41;6.07;;;4.17;;
19107;SDS011;9686;48.832;9.126;2023-05-28T04:25:06;6.03;;;4.23;;
19107;SDS011;9686;48.832;9.126;2023-05-28T04:27:31;7.27;;;4.10;;
19107;SDS011;9686;48.832;9.126;2023-05-28T04:29:57;6.97;;;4.57;;
19107;SDS011;9686;48.832;9.126;2023-05-28T04:32:22;6.87;;;4.20;;
19107;SDS011;9686;48.832;9.126;2023-05-28T04:34:48;6.23;;;4.10;;
19107;SDS011;9686;48.832;9.126;2023-05-28T04:37:16;6.27;;;4.43;;
19107;SDS011;9686;48.832;9.126;2023-05-28T04:39:42;9.63;;;4.17;;
19107;SDS011;9686;48.832;9.126;2023-05-28T04:42:07;4.87;;;3.77;;
19107;SDS011;9686;48.832;9.126;2023-05-28T04:44:34;4.77;;;3.97;;
19107;SDS011;9686;48.832;9.126;2023-05-28T04:46:59;7.70;;;4.80;;
19107;SDS011;9686;48.832;9.126;2023-05-28T04:49:25;6.07;;;4.17;;
19107;SDS011;9686;48.832;9.126;2023-05-28T04:51:51;4.63;;;3.63;;
19107;SDS011;9686;48.832;9.126;2023-05-28T04:54:16;4.97;;;3.70;;
19107;SDS011;9686;48.832;9.126;2023-05-28T04:56:42;6.67;;;4.00;;
19107;SDS011;9686;48.832;9.126;2023-05-28T04:59:08;7.57;;;3.70;;
19107;SDS011;9686;48.832;9.126;2023-05-28T05:01:35;5.27;;;4.03;;
19107;SDS011;9686;48.832;9.126;2023-05-28T05:04:01;7.23;;;4.40;;
19107;SDS011;9686;48.832;9.126;2023-05-28T05:06:26;5.77;;;3.90;;
19107;SDS011;9686;48.832;9.126;2023-05-28T05:08:53;5.03;;;3.77;;
19107;SDS011;9686;48.832;9.126;2023-05-28T05:11:18;5.20;;;4.20;;
19107;SDS011;9686;48.832;9.126;2023-05-28T05:13:45;6.60;;;4.47;;
19107;SDS011;9686;48.832;9.126;2023-05-28T05:16:10;7.17;;;4.50;;
19107;SDS011;9686;48.832;9.126;2023-05-28T05:18:36;6.97;;;4.20;;
19107;SDS011;9686;48.832;9.126;2023-05-28T05:21:01;6.17;;;3.93;;
19107;SDS011;9686;48.832;9.126;2023-05-28T05:23:26;5.70;;;3.93;;
19107;SDS011;9686;48.832;9.126;2023-05-28T05:25:51;6.17;;;3.93;;
19107;SDS011;9686;48.832;9.126;2023-05-28T05:28:17;6.37;;;3.87;;
19107;SDS011;9686;48.832;9.126;2023-05-28T05:30:42;4.53;;;3.57;;
19107;SDS011;9686;48.832;9.126;2023-05-28T05:33:08;7.87;;;4.13;;
19107;SDS011;9686;48.832;9.126;2023-05-28T05:35:33;6.47;;;4.40;;
19107;SDS011;9686;48.832;9.126;2023-05-28T05:37:58;7.87;;;4.10;;
19107;SDS011;9686;48.832;9.126;2023-05-28T05:40:24;6.07;;;3.80;;
19107;SDS011;9686;48.832;9.126;2023-05-28T05:42:49;8.20;;;4.43;;
19107;SDS011;9686;48.832;9.126;2023-05-28T05:45:14;7.50;;;4.47;;
19107;SDS011;9686;48.832;9.126;2023-05-28T05:47:40;4.80;;;3.40;;
19107;SDS011;9686;48.832;9.126;2023-05-28T05:50:05;6.67;;;4.63;;
19107;SDS011;9686;48.832;9.126;2023-05-28T05:52:31;5.57;;;3.90;;
19107;SDS011;9686;48.832;9.126;2023-05-28T05:54:56;4.57;;;3.57;;
19107;SDS011;9686;48.832;9.126;2023-05-28T05:57:22;5.40;;;3.73;;
19107;SDS011;9686;48.832;9.126;2023-05-28T05:59:47;7.33;;;3.80;;
19107;SDS011;9686;48.832;9.126;2023-05-28T06:02:13;5.60;;;3.33;;
19107;SDS011;9686;48.832;9.126;2023-05-28T06:04:38;5.87;;;3.67;;
19107;SDS011;9686;48.832;9.126;2023-05-28T06:07:03;6.50;;;3.93;;
19107;SDS011;9686;48.832;9.126;2023-05-28T06:09:29;7.37;;;3.77;;
19107;SDS011;9686;48.832;9.126;2023-05-28T06:11:55;5.20;;;3.50;;
19107;SDS011;9686;48.832;9.126;2023-05-28T06:14:21;5.30;;;3.73;;
19107;SDS011;9686;48.832;9.126;2023-05-28T06:16:46;5.17;;;3.33;;
19107;SDS011;9686;48.832;9.126;2023-05-28T06:19:11;5.23;;;2.97;;
19107;SDS011;9686;48.832;9.126;2023-05-28T06:21:37;4.33;;;3.17;;
19107;SDS011;9686;48.832;9.126;2023-05-28T06:24:02;5.07;;;3.40;;
19107;SDS011;9686;48.832;9.126;2023-05-28T06:26:28;5.37;;;2.90;;
19107;SDS011;9686;48.832;9.126;2023-05-28T06:28:53;5.67;;;3.27;;
19107;SDS011;9686;48.832;9.126;2023-05-28T06:31:19;4.60;;;3.07;;
19107;SDS011;9686;48.832;9.126;2023-05-28T06:33:44;4.40;;;3.10;;
19107;SDS011;9686;48.832;9.126;2023-05-28T06:36:10;7.03;;;2.73;;
19107;SDS011;9686;48.832;9.126;2023-05-28T06:38:36;4.57;;;2.93;;
19107;SDS011;9686;48.832;9.126;2023-05-28T06:41:01;4.13;;;2.77;;
19107;SDS011;9686;48.832;9.126;2023-05-28T06:43:26;7.57;;;2.80;;
19107;SDS011;9686;48.832;9.126;2023-05-28T06:45:52;3.73;;;2.77;;
19107;SDS011;9686;48.832;9.126;2023-05-28T06:48:17;6.67;;;3.80;;
19107;SDS011;9686;48.832;9.126;2023-05-28T06:50:42;5.33;;;3.20;;
19107;SDS011;9686;48.832;9.126;2023-05-28T06:53:08;5.43;;;3.17;;
19107;SDS011;9686;48.832;9.126;2023-05-28T06:55:33;4.20;;;2.90;;
19107;SDS011;9686;48.832;9.126;2023-05-28T06:57:58;5.83;;;2.50;;
19107;SDS011;9686;48.832;9.126;2023-05-28T07:00:23;5.10;;;3.00;;
19107;SDS011;9686;48.832;9.126;2023-05-28T07:02:49;5.07;;;2.87;;
19107;SDS011;9686;48.832;9.126;2023-05-28T07:05:14;6.03;;;2.93;;
19107;SDS011;9686;48.832;9.126;2023-05-28T07:07:39;4.13;;;3.03;;
19107;SDS011;9686;48.832;9.126;2023-05-28T07:10:05;5.13;;;2.90;;
19107;SDS011;9686;48.832;9.126;2023-05-28T07:12:31;2.90;;;2.50;;
19107;SDS011;9686;48.832;9.126;2023-05-28T07:14:56;3.83;;;2.90;;
19107;SDS011;9686;48.832;9.126;2023-05-28T07:17:22;4.43;;;2.97;;
19107;SDS011;9686;48.832;9.126;2023-05-28T07:19:50;7.10;;;3.40;;
19107;SDS011;9686;48.832;9.126;2023-05-28T07:22:15;4.33;;;2.70;;
19107;SDS011;9686;48.832;9.126;2023-05-28T07:24:41;7.73;;;2.83;;
19107;SDS011;9686;48.832;9.126;2023-05-28T07:27:06;4.47;;;2.60;;
19107;SDS011;9686;48.832;9.126;2023-05-28T07:29:32;4.33;;;2.80;;
19107;SDS011;9686;48.832;9.126;2023-05-28T07:31:57;6.83;;;3.13;;
19107;SDS011;9686;48.832;9.126;2023-05-28T07:34:22;4.47;;;2.73;;
19107;SDS011;9686;48.832;9.126;2023-05-28T07:36:48;5.53;;;3.00;;
19107;SDS011;9686;48.832;9.126;2023-05-28T07:39:13;4.93;;;2.70;;
19107;SDS011;9686;48.832;9.126;2023-05-28T07:41:38;4.23;;;2.80;;
19107;SDS011;9686;48.832;9.126;2023-05-28T07:44:03;5.27;;;3.03;;
19107;SDS011;9686;48.832;9.126;2023-05-28T07:46:31;3.90;;;2.63;;
19107;SDS011;9686;48.832;9.126;2023-05-28T07:48:57;4.73;;;3.03;;
19107;SDS011;9686;48.832;9.126;2023-05-28T07:51:22;6.70;;;3.10;;
19107;SDS011;9686;48.832;9.126;2023-05-28T07:53:47;5.77;;;3.00;;
19107;SDS011;9686;48.832;9.126;2023-05-28T07:56:13;4.03;;;2.63;;
19107;SDS011;9686;48.832;9.126;2023-05-28T07:58:42;3.53;;;2.60;;
19107;SDS011;9686;48.832;9.126;2023-05-28T08:01:08;4.27;;;2.57;;
19107;SDS011;9686;48.832;9.126;2023-05-28T08:03:34;3.70;;;2.40;;
19107;SDS011;9686;48.832;9.126;2023-05-28T08:06:00;5.03;;;2.70;;
19107;SDS011;9686;48.832;9.126;2023-05-28T08:08:25;4.10;;;2.80;;
19107;SDS011;9686;48.832;9.126;2023-05-28T08:10:51;5.97;;;3.20;;
19107;SDS011;9686;48.832;9.126;2023-05-28T08:13:17;4.60;;;2.87;;
19107;SDS011;9686;48.832;9.126;2023-05-28T08:15:42;4.37;;;2.63;;
19107;SDS011;9686;48.832;9.126;2023-05-28T08:18:07;5.70;;;2.90;;
19107;SDS011;9686;48.832;9.126;2023-05-28T08:20:33;6.13;;;2.53;;
19107;SDS011;9686;48.832;9.126;2023-05-28T08:23:00;4.73;;;2.80;;
19107;SDS011;9686;48.832;9.126;2023-05-28T08:25:25;6.60;;;3.20;;
19107;SDS011;9686;48.832;9.126;2023-05-28T08:27:50;4.80;;;2.90;;
19107;SDS011;9686;48.832;9.126;2023-05-28T08:30:16;4.23;;;3.13;;
19107;SDS011;9686;48.832;9.126;2023-05-28T08:32:41;6.07;;;2.77;;
19107;SDS011;9686;48.832;9.126;2023-05-28T08:35:07;5.17;;;2.67;;
19107;SDS011;9686;48.832;9.126;2023-05-28T08:37:33;5.77;;;2.83;;
19107;SDS011;9686;48.832;9.126;2023-05-28T08:39:58;6.10;;;2.83;;
19107;SDS011;9686;48.832;9.126;2023-05-28T08:42:24;6.57;;;3.03;;
19107;SDS011;9686;48.832;9.126;2023-05-28T08:44:49;5.47;;;3.10;;
19107;SDS011;9686;48.832;9.126;2023-05-28T08:47:14;4.67;;;2.97;;
19107;SDS011;9686;48.832;9.126;2023-05-28T08:49:51;5.37;;;3.57;;
19107;SDS011;9686;48.832;9.126;2023-05-28T08:52:18;5.83;;;3.23;;
19107;SDS011;9686;48.832;9.126;2023-05-28T08:54:45;6.00;;;2.87;;
19107;SDS011;9686;48.832;9.126;2023-05-28T08:57:11;5.27;;;3.10;;
19107;SDS011;9686;48.832;9.126;2023-05-28T08:59:37;7.27;;;3.33;;
19107;SDS011;9686;48.832;9.126;2023-05-28T09:02:03;5.33;;;3.17;;
19107;SDS011;9686;48.832;9.126;2023-05-28T09:04:28;5.20;;;2.93;;
19107;SDS011;9686;48.832;9.126;2023-05-28T09:06:54;5.63;;;3.40;;
19107;SDS011;9686;48.832;9.126;2023-05-28T09:09:19;6.37;;;2.90;;
19107;SDS011;9686;48.832;9.126;2023-05-28T09:11:45;6.00;;;3.43;;
19107;SDS011;9686;48.832;9.126;2023-05-28T09:14:11;6.33;;;3.10;;
19107;SDS011;9686;48.832;9.126;2023-05-28T09:16:42;7.13;;;3.73;;
19107;SDS011;9686;48.832;9.126;2023-05-28T09:19:09;5.50;;;2.70;;
19107;SDS011;9686;48.832;9.126;2023-05-28T09:21:35;4.23;;;2.77;;
19107;SDS011;9686;48.832;9.126;2023-05-28T09:24:03;4.17;;;2.70;;
19107;SDS011;9686;48.832;9.126;2023-05-28T09:26:32;6.00;;;2.93;;
19107;SDS011;9686;48.832;9.126;2023-05-28T09:28:58;4.33;;;3.10;;
19107;SDS011;9686;48.832;9.126;2023-05-28T09:31:30;4.80;;;3.13;;
19107;SDS011;9686;48.832;9.126;2023-05-28T09:33:58;5.17;;;2.67;;
19107;SDS011;9686;48.832;9.126;2023-05-28T09:36:25;5.80;;;3.03;;
19107;SDS011;9686;48.832;9.126;2023-05-28T09:38:50;4.07;;;2.63;;
19107;SDS011;9686;48.832;9.126;2023-05-28T09:41:25;5.03;;;2.93;;
19107;SDS011;9686;48.832;9.126;2023-05-28T09:43:57;6.37;;;2.90;;
19107;SDS011;9686;48.832;9.126;2023-05-28T09:46:26;4.43;;;2.93;;
19107;SDS011;9686;48.832;9.126;2023-05-28T09:48:55;5.27;;;3.00;;
19107;SDS011;9686;48.832;9.126;2023-05-28T09:51:22;4.53;;;2.70;;
19107;SDS011;9686;48.832;9.126;2023-05-28T09:53:49;5.47;;;3.10;;
19107;SDS011;9686;48.832;9.126;2023-05-28T09:56:18;4.03;;;3.10;;
19107;SDS011;9686;48.832;9.126;2023-05-28T09:58:46;5.00;;;2.60;;
19107;SDS011;9686;48.832;9.126;2023-05-28T10:01:15;6.13;;;2.87;;
19107;SDS011;9686;48.832;9.126;2023-05-28T10:03:49;3.90;;;2.77;;
19107;SDS011;9686;48.832;9.126;2023-05-28T10:06:21;5.40;;;3.20;;
19107;SDS011;9686;48.832;9.126;2023-05-28T10:08:52;7.47;;;2.90;;
19107;SDS011;9686;48.832;9.126;2023-05-28T10:11:22;4.93;;;2.70;;
19107;SDS011;9686;48.832;9.126;2023-05-28T10:13:56;5.03;;;2.70;;
19107;SDS011;9686;48.832;9.126;2023-05-28T10:16:22;5.00;;;2.80;;
19107;SDS011;9686;48.832;9.126;2023-05-28T10:18:49;4.57;;;2.70;;
19107;SDS011;9686;48.832;9.126;2023-05-28T10:21:15;4.70;;;2.90;;
19107;SDS011;9686;48.832;9.126;2023-05-28T10:23:41;5.67;;;3.30;;
19107;SDS011;9686;48.832;9.126;2023-05-28T10:26:09;5.97;;;2.90;;
19107;SDS011;9686;48.832;9.126;2023-05-28T10:28:34;4.73;;;3.00;;
19107;SDS011;9686;48.832;9.126;2023-05-28T10:31:05;4.80;;;2.77;;
19107;SDS011;9686;48.832;9.126;2023-05-28T10:33:37;5.50;;;2.73;;
19107;SDS011;9686;48.832;9.126;2023-05-28T10:36:04;3.83;;;2.63;;
19107;SDS011;9686;48.832;9.126;2023-05-28T10:38:40;5.37;;;2.67;;
19107;SDS011;9686;48.832;9.126;2023-05-28T10:41:30;7.57;;;3.40;;
19107;SDS011;9686;48.832;9.126;2023-05-28T10:43:58;5.60;;;2.70;;
19107;SDS011;9686;48.832;9.126;2023-05-28T10:46:37;5.37;;;2.73;;
19107;SDS011;9686;48.832;9.126;2023-05-28T10:54:22;3.63;;;2.53;;
19107;SDS011;9686;48.832;9.126;2023-05-28T10:57:27;5.40;;;3.00;;
19107;SDS011;9686;48.832;9.126;2023-05-28T10:59:47;4.50;;;2.80;;
19107;SDS011;9686;48.832;9.126;2023-05-28T11:02:17;5.03;;;3.37;;
19107;SDS011;9686;48.832;9.126;2023-05-28T11:04:45;4.77;;;2.80;;
19107;SDS011;9686;48.832;9.126;2023-05-28T11:07:14;4.77;;;2.43;;
19107;SDS011;9686;48.832;9.126;2023-05-28T11:09:39;4.60;;;2.77;;
19107;SDS011;9686;48.832;9.126;2023-05-28T11:12:05;3.73;;;2.70;;
19107;SDS011;9686;48.832;9.126;2023-05-28T11:14:34;5.60;;;3.00;;
19107;SDS011;9686;48.832;9.126;2023-05-28T11:17:01;5.40;;;2.60;;
19107;SDS011;9686;48.832;9.126;2023-05-28T11:19:31;5.20;;;3.20;;
19107;SDS011;9686;48.832;9.126;2023-05-28T11:22:07;6.43;;;3.37;;
19107;SDS011;9686;48.832;9.126;2023-05-28T11:24:48;4.63;;;3.07;;
19107;SDS011;9686;48.832;9.126;2023-05-28T11:27:23;4.17;;;2.70;;
19107;SDS011;9686;48.832;9.126;2023-05-28T11:29:50;8.20;;;3.27;;
19107;SDS011;9686;48.832;9.126;2023-05-28T11:32:18;6.57;;;3.20;;
19107;SDS011;9686;48.832;9.126;2023-05-28T11:34:44;6.57;;;2.93;;
19107;SDS011;9686;48.832;9.126;2023-05-28T11:37:10;4.77;;;2.80;;
19107;SDS011;9686;48.832;9.126;2023-05-28T11:39:35;5.23;;;2.67;;
19107;SDS011;9686;48.832;9.126;2023-05-28T11:42:01;6.73;;;3.33;;
19107;SDS011;9686;48.832;9.126;2023-05-28T11:44:26;3.88;;;3.10;;
19107;SDS011;9686;48.832;9.126;2023-05-28T11:46:55;4.80;;;2.50;;
19107;SDS011;9686;48.832;9.126;2023-05-28T11:49:21;4.00;;;2.80;;
19107;SDS011;9686;48.832;9.126;2023-05-28T11:51:49;5.28;;;3.00;;
19107;SDS011;9686;48.832;9.126;2023-05-28T11:54:16;3.92;;;2.80;;
19107;SDS011;9686;48.832;9.126;2023-05-28T11:56:41;3.60;;;2.90;;
19107;SDS011;9686;48.832;9.126;2023-05-28T11:59:06;4.03;;;2.88;;
19107;SDS011;9686;48.832;9.126;2023-05-28T12:01:32;5.63;;;2.70;;
19107;SDS011;9686;48.832;9.126;2023-05-28T12:04:05;3.08;;;2.60;;
19107;SDS011;9686;48.832;9.126;2023-05-28T12:06:32;3.17;;;2.88;;
19107;SDS011;9686;48.832;9.126;2023-05-28T12:09:02;3.85;;;2.70;;
19107;SDS011;9686;48.832;9.126;2023-05-28T12:11:28;3.83;;;2.60;;
19107;SDS011;9686;48.832;9.126;2023-05-28T12:13:53;3.10;;;2.65;;
19107;SDS011;9686;48.832;9.126;2023-05-28T12:16:19;4.25;;;2.67;;
19107;SDS011;9686;48.832;9.126;2023-05-28T12:18:44;3.65;;;2.92;;
19107;SDS011;9686;48.832;9.126;2023-05-28T12:21:11;4.90;;;3.10;;
19107;SDS011;9686;48.832;9.126;2023-05-28T12:23:37;5.68;;;3.22;;
19107;SDS011;9686;48.832;9.126;2023-05-28T12:26:02;3.00;;;2.47;;
19107;SDS011;9686;48.832;9.126;2023-05-28T12:28:28;4.28;;;2.97;;
19107;SDS011;9686;48.832;9.126;2023-05-28T12:30:53;4.28;;;2.75;;
19107;SDS011;9686;48.832;9.126;2023-05-28T12:33:20;4.60;;;2.80;;
19107;SDS011;9686;48.832;9.126;2023-05-28T12:35:46;5.47;;;2.80;;
19107;SDS011;9686;48.832;9.126;2023-05-28T12:38:12;5.10;;;3.10;;
19107;SDS011;9686;48.832;9.126;2023-05-28T12:40:38;5.18;;;2.80;;
19107;SDS011;9686;48.832;9.126;2023-05-28T12:43:03;4.28;;;2.70;;
19107;SDS011;9686;48.832;9.126;2023-05-28T12:45:29;3.00;;;2.60;;
19107;SDS011;9686;48.832;9.126;2023-05-28T12:47:54;5.75;;;3.33;;
19107;SDS011;9686;48.832;9.126;2023-05-28T12:50:20;3.92;;;2.70;;
19107;SDS011;9686;48.832;9.126;2023-05-28T12:52:48;3.77;;;2.93;;
19107;SDS011;9686;48.832;9.126;2023-05-28T12:55:14;5.00;;;2.90;;
19107;SDS011;9686;48.832;9.126;2023-05-28T12:57:39;5.50;;;3.10;;
19107;SDS011;9686;48.832;9.126;2023-05-28T13:00:05;7.20;;;3.10;;
19107;SDS011;9686;48.832;9.126;2023-05-28T13:02:35;3.77;;;2.07;;
19107;SDS011;9686;48.832;9.126;2023-05-28T13:05:00;5.53;;;3.50;;
19107;SDS011;9686;48.832;9.126;2023-05-28T13:07:25;3.67;;;2.87;;
19107;SDS011;9686;48.832;9.126;2023-05-28T13:09:51;3.37;;;2.83;;
19107;SDS011;9686;48.832;9.126;2023-05-28T13:12:16;5.40;;;2.70;;
19107;SDS011;9686;48.832;9.126;2023-05-28T13:14:41;4.07;;;2.73;;
19107;SDS011;9686;48.832;9.126;2023-05-28T13:17:06;4.77;;;3.00;;
19107;SDS011;9686;48.832;9.126;2023-05-28T13:19:32;5.07;;;2.80;;
19107;SDS011;9686;48.832;9.126;2023-05-28T13:21:57;4.13;;;2.83;;
19107;SDS011;9686;48.832;9.126;2023-05-28T13:24:24;4.63;;;2.75;;
19107;SDS011;9686;48.832;9.126;2023-05-28T13:26:50;4.33;;;2.70;;
19107;SDS011;9686;48.832;9.126;2023-05-28T13:29:15;5.10;;;3.00;;
19107;SDS011;9686;48.832;9.126;2023-05-28T13:31:40;4.10;;;2.87;;
19107;SDS011;9686;48.832;9.126;2023-05-28T13:34:06;6.05;;;3.28;;
19107;SDS011;9686;48.832;9.126;2023-05-28T13:36:31;5.90;;;2.80;;
19107;SDS011;9686;48.832;9.126;2023-05-28T13:38:56;5.53;;;3.17;;
19107;SDS011;9686;48.832;9.126;2023-05-28T13:41:22;4.77;;;2.53;;
19107;SDS011;9686;48.832;9.126;2023-05-28T13:43:51;6.07;;;2.97;;
19107;SDS011;9686;48.832;9.126;2023-05-28T13:46:20;4.57;;;3.03;;
19107;SDS011;9686;48.832;9.126;2023-05-28T13:48:47;4.73;;;2.50;;
19107;SDS011;9686;48.832;9.126;2023-05-28T13:51:13;3.27;;;2.67;;
19107;SDS011;9686;48.832;9.126;2023-05-28T13:53:39;4.10;;;2.70;;
19107;SDS011;9686;48.832;9.126;2023-05-28T13:56:04;4.67;;;3.13;;
19107;SDS011;9686;48.832;9.126;2023-05-28T13:58:30;4.53;;;2.90;;
19107;SDS011;9686;48.832;9.126;2023-05-28T14:00:55;4.23;;;2.70;;
19107;SDS011;9686;48.832;9.126;2023-05-28T14:03:21;4.03;;;2.77;;
19107;SDS011;9686;48.832;9.126;2023-05-28T14:05:46;6.17;;;3.00;;
19107;SDS011;9686;48.832;9.126;2023-05-28T14:08:11;4.27;;;2.80;;
19107;SDS011;9686;48.832;9.126;2023-05-28T14:10:37;5.00;;;3.10;;
19107;SDS011;9686;48.832;9.126;2023-05-28T14:13:02;4.73;;;2.60;;
19107;SDS011;9686;48.832;9.126;2023-05-28T14:15:28;5.00;;;2.77;;
19107;SDS011;9686;48.832;9.126;2023-05-28T14:17:53;5.13;;;3.37;;
19107;SDS011;9686;48.832;9.126;2023-05-28T14:20:18;6.83;;;3.20;;
19107;SDS011;9686;48.832;9.126;2023-05-28T14:22:44;4.73;;;2.93;;
19107;SDS011;9686;48.832;9.126;2023-05-28T14:25:12;5.87;;;3.40;;
19107;SDS011;9686;48.832;9.126;2023-05-28T14:27:38;5.93;;;3.03;;
19107;SDS011;9686;48.832;9.126;2023-05-28T14:30:04;5.37;;;2.83;;
19107;SDS011;9686;48.832;9.126;2023-05-28T14:32:30;3.13;;;2.70;;
19107;SDS011;9686;48.832;9.126;2023-05-28T14:34:55;5.87;;;2.67;;
19107;SDS011;9686;48.832;9.126;2023-05-28T14:37:21;4.40;;;2.80;;
19107;SDS011;9686;48.832;9.126;2023-05-28T14:39:46;3.73;;;2.63;;
19107;SDS011;9686;48.832;9.126;2023-05-28T14:42:11;4.60;;;2.67;;
19107;SDS011;9686;48.832;9.126;2023-05-28T14:44:37;5.07;;;2.80;;
19107;SDS011;9686;48.832;9.126;2023-05-28T14:47:02;4.37;;;2.80;;
19107;SDS011;9686;48.832;9.126;2023-05-28T14:49:28;4.87;;;3.00;;
19107;SDS011;9686;48.832;9.126;2023-05-28T14:51:54;4.30;;;2.83;;
19107;SDS011;9686;48.832;9.126;2023-05-28T14:54:20;5.53;;;3.50;;
19107;SDS011;9686;48.832;9.126;2023-05-28T14:56:46;3.90;;;2.87;;
19107;SDS011;9686;48.832;9.126;2023-05-28T14:59:11;5.27;;;2.53;;
19107;SDS011;9686;48.832;9.126;2023-05-28T15:01:37;5.07;;;3.03;;